createdAt,value
2023-03-02T00:01:49.472Z,99592.88
2023-03-02T00:04:15.944Z,99588.72
2023-03-02T00:06:42.577Z,99588.69
2023-03-02T00:09:09.032Z,99585.09
2023-03-02T00:11:35.421Z,99586.50
2023-03-02T00:14:01.838Z,99585.59
2023-03-02T00:16:28.272Z,99575.09
2023-03-02T00:18:54.728Z,99572.66
2023-03-02T00:21:21.152Z,99574.47
2023-03-02T00:23:47.539Z,99572.66
2023-03-02T00:26:14.513Z,99576.47
2023-03-02T00:28:40.954Z,99575.56
2023-03-02T00:31:07.458Z,99574.63
2023-03-02T00:33:33.934Z,99579.78
2023-03-02T00:36:00.424Z,99567.59
2023-03-02T00:38:26.941Z,99565.09
2023-03-02T00:40:53.308Z,99561.63
2023-03-02T00:43:19.689Z,99555.44
2023-03-02T00:45:46.066Z,99556.94
2023-03-02T00:48:12.544Z,99553.88
2023-03-02T00:50:40.514Z,99549.38
2023-03-02T00:53:06.895Z,99549.03
2023-03-02T00:55:33.348Z,99549.13
2023-03-02T00:57:59.874Z,99538.13
2023-03-02T01:00:26.772Z,99539.97
2023-03-02T01:02:53.399Z,99542.84
2023-03-02T01:05:19.969Z,99535.38
2023-03-02T01:07:46.549Z,99531.88
2023-03-02T01:10:12.961Z,99534.44
2023-03-02T01:12:39.352Z,99534.44
2023-03-02T01:15:05.788Z,99521.22
2023-03-02T01:17:32.172Z,99515.16
2023-03-02T01:19:58.577Z,99515.50
2023-03-02T01:22:25.036Z,99513.97
2023-03-02T01:24:51.518Z,99512.91
2023-03-02T01:27:17.894Z,99513.25
2023-03-02T01:29:44.344Z,99514.91
2023-03-02T01:32:10.837Z,99506.84
2023-03-02T01:34:37.361Z,99504.25
2023-03-02T01:37:03.761Z,99498.97
2023-03-02T01:39:32.347Z,99492.84
2023-03-02T01:41:58.778Z,99490.31
2023-03-02T01:44:25.197Z,99501.59
2023-03-02T01:46:51.895Z,99506.00
2023-03-02T01:49:18.328Z,99509.47
2023-03-02T01:51:44.753Z,99502.50
2023-03-02T01:54:11.280Z,99504.34
2023-03-02T01:56:37.711Z,99502.13
2023-03-02T01:59:04.133Z,99504.16
2023-03-02T02:01:30.693Z,99500.88
2023-03-02T02:03:57.323Z,99505.50
2023-03-02T02:06:23.845Z,99508.09
2023-03-02T02:08:50.267Z,99504.59
2023-03-02T02:11:17.256Z,99502.13
2023-03-02T02:13:43.694Z,99499.47
2023-03-02T02:16:10.202Z,99498.63
2023-03-02T02:18:36.668Z,99497.72
2023-03-02T02:21:03.108Z,99496.91
2023-03-02T02:23:29.539Z,99489.97
2023-03-02T02:25:56.406Z,99490.88
2023-03-02T02:28:22.878Z,99489.19
2023-03-02T02:30:49.341Z,99484.09
2023-03-02T02:33:15.768Z,99486.84
2023-03-02T02:35:42.639Z,99487.06
2023-03-02T02:38:11.936Z,99488.94
2023-03-02T02:40:38.320Z,99483.94
2023-03-02T02:43:04.752Z,99486.72
2023-03-02T02:45:31.181Z,99491.41
2023-03-02T02:47:57.641Z,99494.94
2023-03-02T02:50:25.468Z,99488.91
2023-03-02T02:52:52.110Z,99495.88
2023-03-02T02:55:18.555Z,99500.38
2023-03-02T02:57:44.992Z,99497.75
2023-03-02T03:00:11.494Z,99490.88
2023-03-02T03:02:37.915Z,99494.41
2023-03-02T03:05:04.439Z,99499.75
2023-03-02T03:07:30.905Z,99489.34
2023-03-02T03:09:57.939Z,99493.72
2023-03-02T03:12:24.580Z,99494.69
2023-03-02T03:14:53.244Z,99487.81
2023-03-02T03:17:19.681Z,99492.19
2023-03-02T03:19:46.122Z,99484.47
2023-03-02T03:22:12.493Z,99491.56
2023-03-02T03:24:39.355Z,99486.34
2023-03-02T03:27:06.045Z,99492.53
2023-03-02T03:29:32.604Z,99483.47
2023-03-02T03:31:59.084Z,99487.78
2023-03-02T03:34:25.550Z,99489.75
2023-03-02T03:36:51.950Z,99492.50
2023-03-02T03:39:18.381Z,99491.63
2023-03-02T03:41:44.800Z,99485.63
2023-03-02T03:44:11.254Z,99482.25
2023-03-02T03:46:37.721Z,99489.19
2023-03-02T03:49:04.118Z,99485.69
2023-03-02T03:51:30.555Z,99481.63
2023-03-02T03:53:57.098Z,99479.00
2023-03-02T03:56:23.483Z,99484.50
2023-03-02T03:58:49.936Z,99480.06
2023-03-02T04:01:16.424Z,99481.75
2023-03-02T04:03:42.981Z,99485.47
2023-03-02T04:06:09.416Z,99480.44
2023-03-02T04:08:35.857Z,99470.97
2023-03-02T04:11:02.295Z,99469.13
2023-03-02T04:13:28.699Z,99474.31
2023-03-02T04:15:55.225Z,99469.31
2023-03-02T04:18:21.695Z,99470.38
2023-03-02T04:20:48.136Z,99461.78
2023-03-02T04:23:14.563Z,99468.06
2023-03-02T04:25:41.022Z,99458.66
2023-03-02T04:28:07.515Z,99466.16
2023-03-02T04:30:33.994Z,99462.97
2023-03-02T04:33:00.672Z,99467.03
2023-03-02T04:35:27.526Z,99469.81
2023-03-02T04:37:59.522Z,99465.34
2023-03-02T04:40:26.010Z,99478.25
2023-03-02T04:42:52.437Z,99473.91
2023-03-02T04:45:18.958Z,99470.22
2023-03-02T04:47:45.492Z,99467.50
2023-03-02T04:50:11.924Z,99461.31
2023-03-02T04:52:38.442Z,99474.28
2023-03-02T04:55:04.902Z,99460.41
2023-03-02T04:57:31.338Z,99462.78
2023-03-02T04:59:57.760Z,99458.06
2023-03-02T05:02:24.157Z,99463.16
2023-03-02T05:04:50.688Z,99465.63
2023-03-02T05:07:17.145Z,99469.16
2023-03-02T05:09:43.635Z,99467.44
2023-03-02T05:12:10.515Z,99468.28
2023-03-02T05:14:37.351Z,99461.22
2023-03-02T05:17:05.948Z,99457.88
2023-03-02T05:19:32.347Z,99468.38
2023-03-02T05:21:58.824Z,99468.78
2023-03-02T05:24:25.258Z,99473.97
2023-03-02T05:26:52.030Z,99471.50
2023-03-02T05:29:18.434Z,99471.38
2023-03-02T05:31:44.973Z,99471.69
2023-03-02T05:34:11.917Z,99472.50
2023-03-02T05:36:38.616Z,99475.00
2023-03-02T05:39:05.173Z,99474.63
2023-03-02T05:41:31.706Z,99474.41
2023-03-02T05:43:58.168Z,99475.41
2023-03-02T05:46:24.768Z,99474.59
2023-03-02T05:48:51.292Z,99464.50
2023-03-02T05:51:17.710Z,99473.34
2023-03-02T05:53:44.233Z,99477.44
2023-03-02T05:56:10.776Z,99470.19
2023-03-02T05:58:37.279Z,99466.72
2023-03-02T06:01:08.529Z,99475.41
2023-03-02T06:03:35.027Z,99481.53
2023-03-02T06:06:01.582Z,99470.97
2023-03-02T06:08:28.052Z,99472.69
2023-03-02T06:10:54.457Z,99482.94
2023-03-02T06:13:21.861Z,99487.94
2023-03-02T06:15:48.310Z,99479.31
2023-03-02T06:18:14.722Z,99487.06
2023-03-02T06:20:41.291Z,99487.81
2023-03-02T06:23:07.733Z,99488.56
2023-03-02T06:25:34.174Z,99481.72
2023-03-02T06:28:00.640Z,99486.03
2023-03-02T06:30:27.233Z,99492.88
2023-03-02T06:32:53.715Z,99493.91
2023-03-02T06:35:20.257Z,99493.81
2023-03-02T06:37:46.690Z,99497.97
2023-03-02T06:40:13.121Z,99485.78
2023-03-02T06:42:39.519Z,99482.22
2023-03-02T06:45:05.916Z,99483.75
2023-03-02T06:47:32.369Z,99488.16
2023-03-02T06:49:58.852Z,99491.13
2023-03-02T06:52:25.617Z,99497.09
2023-03-02T06:54:52.142Z,99490.69
2023-03-02T06:57:18.856Z,99499.88
2023-03-02T06:59:45.324Z,99496.19
2023-03-02T07:02:11.810Z,99499.50
2023-03-02T07:04:38.230Z,99508.88
2023-03-02T07:07:04.652Z,99508.22
2023-03-02T07:09:31.364Z,99508.13
2023-03-02T07:11:57.853Z,99512.09
2023-03-02T07:14:24.246Z,99513.81
2023-03-02T07:16:50.734Z,99508.56
2023-03-02T07:19:17.218Z,99511.16
2023-03-02T07:21:43.613Z,99518.06
2023-03-02T07:24:10.104Z,99519.47
2023-03-02T07:26:36.611Z,99513.19
2023-03-02T07:29:03.074Z,99503.94
2023-03-02T07:31:29.524Z,99502.41
2023-03-02T07:33:56.001Z,99507.97
2023-03-02T07:36:22.468Z,99502.91
2023-03-02T07:38:48.935Z,99506.41
2023-03-02T07:41:15.532Z,99504.09
2023-03-02T07:43:41.925Z,99507.47
2023-03-02T07:46:08.431Z,99506.53
2023-03-02T07:48:34.949Z,99514.47
2023-03-02T07:51:01.325Z,99513.06
2023-03-02T07:53:27.732Z,99514.13
2023-03-02T07:55:54.226Z,99506.31
2023-03-02T07:58:20.622Z,99510.97
2023-03-02T08:00:47.039Z,99512.25
2023-03-02T08:03:13.575Z,99507.38
2023-03-02T08:05:40.097Z,99509.16
2023-03-02T08:08:09.375Z,99512.06
2023-03-02T08:10:35.836Z,99507.63
2023-03-02T08:13:02.303Z,99504.72
2023-03-02T08:15:28.831Z,99503.19
2023-03-02T08:17:55.254Z,99505.97
2023-03-02T08:20:21.665Z,99506.06
2023-03-02T08:22:48.146Z,99502.56
2023-03-02T08:25:14.597Z,99498.78
2023-03-02T08:27:41.009Z,99505.41
2023-03-02T08:30:07.448Z,99505.19
2023-03-02T08:32:33.829Z,99500.22
2023-03-02T08:35:00.800Z,99504.34
2023-03-02T08:37:27.188Z,99500.94
2023-03-02T08:39:53.659Z,99493.78
2023-03-02T08:42:20.078Z,99493.59
2023-03-02T08:44:46.534Z,99492.19
2023-03-02T08:47:12.949Z,99491.56
2023-03-02T08:49:39.353Z,99495.25
2023-03-02T08:52:05.805Z,99491.00
2023-03-02T08:54:32.166Z,99495.25
2023-03-02T08:56:58.642Z,99493.06
2023-03-02T08:59:25.065Z,99483.88
2023-03-02T09:01:51.522Z,99491.56
2023-03-02T09:04:18.007Z,99493.03
2023-03-02T09:06:44.508Z,99484.50
2023-03-02T09:09:10.955Z,99484.53
2023-03-02T09:11:37.415Z,99491.72
2023-03-02T09:14:03.876Z,99487.78
2023-03-02T09:16:30.399Z,99483.50
2023-03-02T09:18:56.814Z,99479.28
2023-03-02T09:21:23.222Z,99476.47
2023-03-02T09:23:49.633Z,99480.69
2023-03-02T09:26:16.042Z,99477.03
2023-03-02T09:28:42.588Z,99476.28
2023-03-02T09:31:09.049Z,99471.63
2023-03-02T09:33:35.547Z,99485.41
2023-03-02T09:36:02.080Z,99475.41
2023-03-02T09:38:28.553Z,99477.63
2023-03-02T09:40:55.172Z,99479.16
2023-03-02T09:43:21.598Z,99482.63
2023-03-02T09:45:48.068Z,99482.53
2023-03-02T09:48:14.492Z,99476.44
2023-03-02T09:50:40.938Z,99470.88
2023-03-02T09:53:07.332Z,99471.19
2023-03-02T09:55:33.807Z,99468.09
2023-03-02T09:58:00.271Z,99462.41
2023-03-02T10:00:26.657Z,99462.16
2023-03-02T10:02:54.024Z,99465.50
2023-03-02T10:05:20.515Z,99467.91
2023-03-02T10:07:46.926Z,99458.94
2023-03-02T10:10:13.337Z,99460.16
2023-03-02T10:12:39.805Z,99457.72
2023-03-02T10:15:06.210Z,99447.75
2023-03-02T10:17:32.653Z,99452.66
2023-03-02T10:19:59.069Z,99455.59
2023-03-02T10:22:25.480Z,99453.84
2023-03-02T10:24:53.538Z,99450.69
2023-03-02T10:27:19.970Z,99443.16
2023-03-02T10:29:46.429Z,99447.59
2023-03-02T10:32:12.938Z,99442.50
2023-03-02T10:34:39.440Z,99442.53
2023-03-02T10:37:05.850Z,99443.38
2023-03-02T10:39:32.321Z,99434.75
2023-03-02T10:41:58.783Z,99432.09
2023-03-02T10:44:25.224Z,99434.13
2023-03-02T10:46:51.693Z,99425.94
2023-03-02T10:49:21.065Z,99431.28
2023-03-02T10:51:47.743Z,99426.50
2023-03-02T10:54:14.209Z,99429.75
2023-03-02T10:56:40.639Z,99423.75
2023-03-02T10:59:07.078Z,99423.00
2023-03-02T11:01:33.502Z,99424.78
2023-03-02T11:03:59.981Z,99420.63
2023-03-02T11:06:26.395Z,99409.06
2023-03-02T11:08:52.854Z,99412.19
2023-03-02T11:11:19.411Z,99410.28
2023-03-02T11:13:45.875Z,99409.88
2023-03-02T11:16:12.394Z,99408.97
2023-03-02T11:18:38.795Z,99403.22
2023-03-02T11:21:05.200Z,99392.13
2023-03-02T11:23:31.627Z,99394.00
2023-03-02T11:25:58.046Z,99391.63
2023-03-02T11:28:24.446Z,99397.38
2023-03-02T11:30:50.876Z,99396.94
2023-03-02T11:33:17.293Z,99397.91
2023-03-02T11:35:43.832Z,99397.91
2023-03-02T11:38:10.311Z,99385.34
2023-03-02T11:40:36.740Z,99387.25
2023-03-02T11:43:03.178Z,99378.59
2023-03-02T11:45:29.636Z,99381.19
2023-03-02T11:48:02.561Z,99379.38
2023-03-02T11:50:29.922Z,99376.91
2023-03-02T11:52:56.416Z,99377.06
2023-03-02T11:55:22.824Z,99378.66
2023-03-02T11:57:49.238Z,99366.16
2023-03-02T12:00:15.770Z,99360.41
2023-03-02T12:02:42.237Z,99364.47
2023-03-02T12:05:09.358Z,99363.41
2023-03-02T12:07:35.765Z,99355.94
2023-03-02T12:10:02.643Z,99348.56
2023-03-02T12:12:29.140Z,99350.22
2023-03-02T12:14:55.506Z,99351.69
2023-03-02T12:17:21.976Z,99339.19
2023-03-02T12:19:48.420Z,99334.63
2023-03-02T12:22:14.938Z,99338.50
2023-03-02T12:24:41.392Z,99337.16
2023-03-02T12:27:07.823Z,99339.41
2023-03-02T12:29:34.262Z,99329.00
2023-03-02T12:32:00.771Z,99328.66
2023-03-02T12:34:27.208Z,99331.19
2023-03-02T12:36:53.686Z,99325.53
2023-03-02T12:39:20.198Z,99316.88
2023-03-02T12:41:46.760Z,99323.09
2023-03-02T12:44:13.337Z,99322.81
2023-03-02T12:46:39.855Z,99322.53
2023-03-02T12:49:07.104Z,99311.94
2023-03-02T12:51:34.394Z,99311.34
2023-03-02T12:54:00.938Z,99313.03
2023-03-02T12:56:27.432Z,99303.94
2023-03-02T12:58:53.862Z,99302.09
2023-03-02T13:01:26.809Z,99296.72
2023-03-02T13:03:53.359Z,99291.31
2023-03-02T13:06:20.662Z,99295.69
2023-03-02T13:08:47.131Z,99294.16
2023-03-02T13:11:13.633Z,99293.94
2023-03-02T13:13:40.356Z,99288.59
2023-03-02T13:16:06.790Z,99280.47
2023-03-02T13:18:33.394Z,99281.75
2023-03-02T13:21:00.072Z,99273.81
2023-03-02T13:23:26.659Z,99272.59
2023-03-02T13:25:53.141Z,99262.47
2023-03-02T13:28:19.574Z,99259.16
2023-03-02T13:30:46.054Z,99268.09
2023-03-02T13:33:12.535Z,99259.19
2023-03-02T13:35:39.047Z,99255.94
2023-03-02T13:38:05.689Z,99253.63
2023-03-02T13:40:32.181Z,99249.84
2023-03-02T13:42:58.619Z,99247.19
2023-03-02T13:45:25.122Z,99244.38
2023-03-02T13:47:51.732Z,99243.22
2023-03-02T13:50:18.185Z,99238.81
2023-03-02T13:52:44.657Z,99236.19
2023-03-02T13:55:11.294Z,99233.38
2023-03-02T13:57:37.705Z,99234.53
2023-03-02T14:00:04.142Z,99231.34
2023-03-02T14:02:30.609Z,99233.75
2023-03-02T14:04:59.434Z,99236.19
2023-03-02T14:07:26.061Z,99219.84
2023-03-02T14:09:52.481Z,99226.19
2023-03-02T14:12:19.014Z,99218.91
2023-03-02T14:14:48.553Z,99219.66
2023-03-02T14:17:15.048Z,99215.03
2023-03-02T14:19:41.442Z,99211.31
2023-03-02T14:22:07.977Z,99211.31
2023-03-02T14:24:34.595Z,99212.00
2023-03-02T14:27:01.221Z,99207.19
2023-03-02T14:29:27.843Z,99204.00
2023-03-02T14:31:54.407Z,99205.38
2023-03-02T14:34:20.941Z,99202.00
2023-03-02T14:36:47.412Z,99195.50
2023-03-02T14:39:13.847Z,99188.72
2023-03-02T14:41:52.421Z,99195.19
2023-03-02T14:44:19.764Z,99195.50
2023-03-02T14:46:46.165Z,99189.91
2023-03-02T14:49:12.603Z,99189.97
2023-03-02T14:51:39.365Z,99181.94
2023-03-02T14:54:05.912Z,99185.13
2023-03-02T14:56:32.507Z,99182.41
2023-03-02T14:58:59.100Z,99181.56
2023-03-02T15:01:25.518Z,99185.63
2023-03-02T15:03:52.044Z,99177.31
2023-03-02T15:06:18.530Z,99181.91
2023-03-02T15:08:45.193Z,99181.38
2023-03-02T15:11:11.612Z,99188.44
2023-03-02T15:13:38.060Z,99180.72
2023-03-02T15:16:04.537Z,99179.34
2023-03-02T15:18:30.913Z,99183.41
2023-03-02T15:20:57.450Z,99187.88
2023-03-02T15:23:23.857Z,99185.97
2023-03-02T15:25:50.271Z,99177.63
2023-03-02T15:28:16.605Z,99178.34
2023-03-02T15:30:43.502Z,99180.53
2023-03-02T15:33:09.912Z,99182.53
2023-03-02T15:35:36.316Z,99184.59
2023-03-02T15:38:02.773Z,99173.78
2023-03-02T15:40:29.224Z,99177.91
2023-03-02T15:42:55.679Z,99181.41
2023-03-02T15:45:22.153Z,99180.13
2023-03-02T15:47:48.607Z,99179.34
2023-03-02T15:50:15.070Z,99180.63
2023-03-02T15:52:41.430Z,99178.91
2023-03-02T15:55:07.818Z,99172.69
2023-03-02T15:57:34.246Z,99174.22
2023-03-02T16:00:00.788Z,99162.50
2023-03-02T16:02:27.182Z,99172.22
2023-03-02T16:04:53.712Z,99169.53
2023-03-02T16:07:20.348Z,99171.88
2023-03-02T16:09:46.766Z,99174.44
2023-03-02T16:12:13.254Z,99170.88
2023-03-02T16:14:39.920Z,99171.13
2023-03-02T16:17:06.399Z,99174.16
2023-03-02T16:19:32.927Z,99175.59
2023-03-02T16:21:59.846Z,99180.38
2023-03-02T16:24:26.375Z,99181.91
2023-03-02T16:26:52.788Z,99176.97
2023-03-02T16:29:19.377Z,99183.25
2023-03-02T16:31:45.921Z,99182.75
2023-03-02T16:34:12.426Z,99179.34
2023-03-02T16:36:38.956Z,99183.69
2023-03-02T16:39:05.382Z,99192.09
2023-03-02T16:41:31.939Z,99189.84
2023-03-02T16:43:58.456Z,99191.50
2023-03-02T16:46:25.182Z,99193.09
2023-03-02T16:48:51.632Z,99188.84
2023-03-02T16:51:18.038Z,99188.00
2023-03-02T16:53:44.757Z,99187.47
2023-03-02T16:56:11.315Z,99194.59
2023-03-02T16:58:37.808Z,99189.41
2023-03-02T17:01:04.870Z,99198.31
2023-03-02T17:03:31.541Z,99191.84
2023-03-02T17:05:58.278Z,99200.78
2023-03-02T17:08:25.917Z,99192.03
2023-03-02T17:10:56.337Z,99190.22
2023-03-02T17:13:23.304Z,99195.25
2023-03-02T17:15:49.786Z,99200.19
2023-03-02T17:18:16.503Z,99201.13
2023-03-02T17:20:43.008Z,99190.31
2023-03-02T17:23:09.622Z,99201.88
2023-03-02T17:25:36.558Z,99207.50
2023-03-02T17:28:02.993Z,99197.22
2023-03-02T17:30:30.481Z,99202.38
2023-03-02T17:32:57.342Z,99203.47
2023-03-02T17:35:24.275Z,99205.66
2023-03-02T17:37:50.945Z,99199.59
2023-03-02T17:40:17.647Z,99200.22
2023-03-02T17:42:44.387Z,99201.63
2023-03-02T17:45:11.083Z,99208.84
2023-03-02T17:47:37.690Z,99212.69
2023-03-02T17:50:04.196Z,99215.38
2023-03-02T17:52:30.656Z,99215.31
2023-03-02T17:54:57.349Z,99213.28
2023-03-02T17:57:24.435Z,99215.66
2023-03-02T17:59:51.116Z,99218.22
2023-03-02T18:02:19.278Z,99210.88
2023-03-02T18:04:45.952Z,99217.28
2023-03-02T18:07:12.465Z,99220.47
2023-03-02T18:09:39.251Z,99226.16
2023-03-02T18:12:05.794Z,99218.00
2023-03-02T18:14:32.583Z,99221.06
2023-03-02T18:17:02.039Z,99215.94
2023-03-02T18:19:29.045Z,99217.13
2023-03-02T18:21:55.656Z,99213.44
2023-03-02T18:24:22.732Z,99216.44
2023-03-02T18:26:49.664Z,99217.50
2023-03-02T18:29:16.459Z,99217.56
2023-03-02T18:31:44.364Z,99211.94
2023-03-02T18:34:14.994Z,99218.50
2023-03-02T18:36:41.796Z,99218.50
2023-03-02T18:39:08.686Z,99220.69
2023-03-02T18:41:35.405Z,99219.19
2023-03-02T18:44:02.790Z,99218.28
2023-03-02T18:46:29.690Z,99218.06
2023-03-02T18:48:56.686Z,99219.94
2023-03-02T18:51:23.249Z,99211.56
2023-03-02T18:53:51.274Z,99214.53
2023-03-02T18:56:18.961Z,99218.16
2023-03-02T18:58:45.540Z,99221.22
2023-03-02T19:01:12.256Z,99218.66
2023-03-02T19:03:39.547Z,99217.66
2023-03-02T19:06:06.500Z,99217.31
2023-03-02T19:08:34.208Z,99213.63
2023-03-02T19:11:01.813Z,99214.25
2023-03-02T19:13:28.314Z,99210.69
2023-03-02T19:15:55.389Z,99214.50
2023-03-02T19:18:22.519Z,99221.13
2023-03-02T19:20:49.427Z,99215.09
2023-03-02T19:23:16.600Z,99215.34
2023-03-02T19:25:43.531Z,99214.50
2023-03-02T19:28:10.344Z,99215.47
2023-03-02T19:30:37.400Z,99213.31
2023-03-02T19:33:04.366Z,99217.47
2023-03-02T19:35:31.932Z,99221.34
2023-03-02T19:38:01.305Z,99212.91
2023-03-02T19:40:29.290Z,99225.13
2023-03-02T19:42:56.562Z,99224.91
2023-03-02T19:45:23.547Z,99217.19
2023-03-02T19:47:50.658Z,99225.50
2023-03-02T19:50:17.185Z,99223.81
2023-03-02T19:52:44.849Z,99225.72
2023-03-02T19:55:11.451Z,99215.13
2023-03-02T19:57:40.042Z,99219.06
2023-03-02T20:00:07.125Z,99216.69
2023-03-02T20:02:36.357Z,99216.41
2023-03-02T20:05:07.730Z,99218.50
2023-03-02T20:07:41.627Z,99222.13
2023-03-02T20:10:11.624Z,99222.44
2023-03-02T20:12:38.505Z,99216.56
2023-03-02T20:15:05.318Z,99218.31
2023-03-02T20:17:32.891Z,99216.69
2023-03-02T20:20:05.365Z,99211.56
2023-03-02T20:22:32.317Z,99210.97
2023-03-02T20:24:59.209Z,99199.84
2023-03-02T20:27:26.585Z,99208.44
2023-03-02T20:29:53.934Z,99204.28
2023-03-02T20:32:21.018Z,99210.84
2023-03-02T20:34:48.310Z,99210.31
2023-03-02T20:37:18.558Z,99209.41
2023-03-02T20:39:45.945Z,99208.25
2023-03-02T20:42:12.892Z,99207.16
2023-03-02T20:44:40.187Z,99198.91
2023-03-02T20:47:07.091Z,99201.41
2023-03-02T20:49:34.115Z,99204.09
2023-03-02T20:52:02.873Z,99201.53
2023-03-02T20:54:29.844Z,99208.47
2023-03-02T20:56:58.080Z,99216.16
2023-03-02T20:59:24.603Z,99200.22
2023-03-02T21:01:51.826Z,99204.69
2023-03-02T21:04:18.960Z,99205.88
2023-03-02T21:06:45.873Z,99194.59
2023-03-02T21:09:12.555Z,99199.91
2023-03-02T21:11:39.182Z,99203.38
2023-03-02T21:14:06.229Z,99193.44
2023-03-02T21:16:33.825Z,99190.25
2023-03-02T21:19:02.506Z,99186.75
2023-03-02T21:21:40.573Z,99191.63
2023-03-02T21:24:07.876Z,99188.94
2023-03-02T21:26:34.365Z,99190.66
2023-03-02T21:29:01.159Z,99184.56
2023-03-02T21:31:28.892Z,99178.59
2023-03-02T21:33:55.822Z,99183.47
2023-03-02T21:36:22.813Z,99175.84
2023-03-02T21:38:49.312Z,99186.66
2023-03-02T21:41:15.912Z,99177.31
2023-03-02T21:43:42.326Z,99181.22
2023-03-02T21:46:08.802Z,99175.97
2023-03-02T21:48:35.418Z,99180.09
2023-03-02T21:51:02.016Z,99177.13
2023-03-02T21:53:28.493Z,99172.56
2023-03-02T21:55:54.963Z,99168.53
2023-03-02T21:58:21.607Z,99163.56
2023-03-02T22:00:48.144Z,99157.31
2023-03-02T22:03:14.660Z,99158.31
2023-03-02T22:05:41.090Z,99158.97
2023-03-02T22:08:07.515Z,99153.78
2023-03-02T22:10:34.134Z,99154.78
2023-03-02T22:13:00.639Z,99157.44
2023-03-02T22:15:27.403Z,99154.13
2023-03-02T22:17:53.809Z,99157.75
2023-03-02T22:20:20.234Z,99158.84
2023-03-02T22:22:47.015Z,99156.63
2023-03-02T22:25:13.596Z,99161.50
2023-03-02T22:27:40.440Z,99160.88
2023-03-02T22:30:06.930Z,99169.31
2023-03-02T22:32:33.437Z,99166.53
2023-03-02T22:34:59.982Z,99174.13
2023-03-02T22:37:26.554Z,99164.47
2023-03-02T22:39:52.957Z,99166.06
2023-03-02T22:42:19.390Z,99169.66
2023-03-02T22:44:45.833Z,99167.66
2023-03-02T22:47:12.204Z,99162.88
2023-03-02T22:49:38.641Z,99163.44
2023-03-02T22:52:05.118Z,99162.81
2023-03-02T22:54:31.552Z,99161.25
2023-03-02T22:56:59.029Z,99172.94
2023-03-02T22:59:25.504Z,99166.22
2023-03-02T23:01:52.015Z,99171.53
2023-03-02T23:04:18.487Z,99168.00
2023-03-02T23:06:47.357Z,99166.25
2023-03-02T23:09:18.613Z,99165.28
2023-03-02T23:11:45.007Z,99161.47
2023-03-02T23:14:11.821Z,99173.63
2023-03-02T23:16:38.248Z,99174.97
2023-03-02T23:19:04.736Z,99164.03
2023-03-02T23:21:31.230Z,99171.06
2023-03-02T23:23:57.616Z,99168.13
2023-03-02T23:26:24.111Z,99172.56
2023-03-02T23:28:50.590Z,99169.16
2023-03-02T23:31:17.109Z,99169.75
2023-03-02T23:33:43.569Z,99170.34
2023-03-02T23:36:10.065Z,99165.84
2023-03-02T23:38:38.863Z,99175.06
2023-03-02T23:41:05.392Z,99165.31
2023-03-02T23:43:31.837Z,99168.53
2023-03-02T23:45:58.281Z,99169.34
2023-03-02T23:48:24.772Z,99162.09
2023-03-02T23:50:51.166Z,99163.91
2023-03-02T23:53:18.937Z,99164.19
2023-03-02T23:55:45.326Z,99162.50
2023-03-02T23:58:11.801Z,99160.69
